Data for 02/01/2015

Time Sea-Level Adjusted Pressure Absolute Pressure Temperature Relative Humidity Dew Point   
(mb) (inHg) (mb) (inHg) (C) (F) (%) (C) (F)
00:05 1023 30.21 852 25.16 -8 17.7 72 -12.1 10.1
00:10 1023 30.21 852 25.16 -8 17.6 72 -12.2 10.1
00:15 1023 30.21 852 25.16 -8.1 17.5 72 -12.2 10.1
00:20 1023 30.21 852 25.16 -8.1 17.5 73 -12 10.4
00:25 1023 30.21 852 25.16 -8.1 17.4 75 -11.9 10.6
00:30 1023 30.21 852 25.16 -8.1 17.5 74 -12 10.4
00:35 1023 30.21 852 25.16 -8 17.5 73 -12.1 10.3
00:40 1023 30.21 852 25.16 -8.1 17.5 73 -12.1 10.3
00:45 1023 30.21 853 25.19 -8.1 17.4 73 -12.2 10
00:50 1023 30.21 852 25.16 -8.2 17.3 73 -12.2 10
00:55 1023 30.21 853 25.19 -8.2 17.2 74 -12.1 10.2
01:00 1023 30.21 853 25.19 -8.2 17.3 73 -12.2 10
01:05 1023 30.21 853 25.19 -8.5 16.8 75 -12.2 10.1
01:10 1023 30.21 853 25.19 -8.4 17 74 -12.2 10.1
01:15 1023 30.21 853 25.19 -8.3 17.1 74 -12.1 10.3
01:20 1023 30.21 853 25.19 -8.3 17.1 75 -11.9 10.5
01:25 1023 30.21 853 25.19 -8.3 17 75 -12 10.4
01:30 1024 30.24 853 25.19 -8.4 16.9 75 -12 10.4
01:35 1024 30.24 853 25.19 -8.4 16.9 76 -11.8 10.7
01:40 1024 30.24 853 25.19 -8.4 16.9 76 -11.8 10.7
01:45 1024 30.24 853 25.19 -8.4 16.8 76 -11.9 10.5
01:50 1024 30.24 853 25.19 -8.6 16.6 79 -11.6 11.1
01:55 1024 30.24 853 25.19 -8.7 16.4 78 -11.8 10.7
02:00 1024 30.24 853 25.19 -8.6 16.5 78 -11.8 10.8
02:05 1024 30.24 853 25.19 -8.5 16.8 78 -11.6 11
02:10 1024 30.24 853 25.19 -8.5 16.7 78 -11.7 10.9
02:15 1024 30.24 853 25.19 -8.4 16.8 78 -11.6 11.1
02:20 1024 30.24 853 25.19 -8.4 16.9 78 -11.6 11.2
02:25 1024 30.24 853 25.19 -8.7 16.4 80 -11.5 11.3
02:30 1024 30.24 853 25.19 -8.7 16.4 80 -11.5 11.3
02:35 1024 30.24 853 25.19 -8.7 16.4 80 -11.5 11.2
02:40 1024 30.24 853 25.19 -8.7 16.4 81 -11.4 11.4
02:45 1024 30.24 853 25.19 -8.6 16.6 80 -11.5 11.4
02:50 1024 30.24 853 25.19 -8.6 16.5 80 -11.5 11.4
02:55 1024 30.24 853 25.19 -8.7 16.4 81 -11.5 11.4
03:00 1024 30.24 853 25.19 -8.7 16.3 81 -11.4 11.5
03:05 1024 30.24 853 25.19 -8.8 16.3 82 -11.3 11.6
03:10 1024 30.24 853 25.19 -8.8 16.2 82 -11.4 11.5
03:15 1024 30.24 853 25.19 -8.7 16.4 80 -11.5 11.4
03:20 1024 30.24 853 25.19 -8.6 16.5 80 -11.5 11.3
03:25 1024 30.24 853 25.19 -8.6 16.6 81 -11.3 11.6
03:30 1024 30.24 853 25.19 -8.5 16.8 80 -11.3 11.6
03:35 1024 30.24 853 25.19 -8.5 16.8 79 -11.5 11.2
03:40 1024 30.24 853 25.19 -8.6 16.6 79 -11.5 11.3
03:45 1024 30.24 853 25.19 -8.5 16.6 79 -11.6 11.1
03:50 1024 30.24 853 25.19 -8.6 16.5 80 -11.5 11.4
03:55 1024 30.24 853 25.19 -8.6 16.5 80 -11.5 11.4
04:00 1024 30.24 853 25.19 -8.7 16.3 80 -11.6 11.2
04:05 1024 30.24 853 25.19 -8.8 16.2 81 -11.5 11.2
04:10 1024 30.24 853 25.19 -8.8 16.2 80 -11.6 11.1
04:15 1024 30.24 853 25.19 -8.7 16.3 81 -11.5 11.3
04:20 1024 30.24 853 25.19 -8.8 16.2 82 -11.4 11.5
04:25 1024 30.24 853 25.19 -8.8 16.1 83 -11.2 11.8
04:30 1024 30.24 853 25.19 -8.9 16 83 -11.3 11.7
04:35 1024 30.24 853 25.19 -8.9 16 83 -11.3 11.7
04:40 1024 30.24 853 25.19 -8.9 16 83 -11.2 11.8
04:45 1024 30.24 853 25.19 -8.9 15.9 84 -11.2 11.8
04:50 1024 30.24 853 25.19 -9 15.9 84 -11.2 11.8
04:55 1024 30.24 853 25.19 -9 15.7 84 -11.2 11.8
05:00 1024 30.24 853 25.19 -9.1 15.7 84 -11.3 11.6
05:05 1024 30.24 853 25.19 -9.1 15.7 84 -11.3 11.6
05:10 1024 30.24 853 25.19 -9.1 15.7 84 -11.3 11.7
05:15 1024 30.24 853 25.19 -9.1 15.7 84 -11.3 11.7
05:20 1024 30.24 853 25.19 -9 15.9 84 -11.2 11.8
05:25 1024 30.24 853 25.19 -8.8 16.1 83 -11.3 11.7
05:30 1024 30.24 853 25.19 -8.9 15.9 84 -11.2 11.9
05:35 1024 30.24 853 25.19 -8.8 16.2 83 -11.2 11.9
05:40 1024 30.24 853 25.19 -8.9 16 84 -11.1 12
05:45 1024 30.24 853 25.19 -8.9 16 84 -11.1 12.1
05:50 1024 30.24 853 25.19 -9 15.9 85 -11.1 12
05:55 1024 30.24 853 25.19 -9.1 15.6 85 -11.1 11.9
06:00 1024 30.24 853 25.19 -9 15.8 84 -11.2 11.8
06:05 1024 30.24 853 25.19 -8.9 15.9 84 -11.1 11.9
06:10 1024 30.24 853 25.19 -9 15.8 85 -11.1 12.1
06:15 1024 30.24 853 25.19 -9 15.8 86 -11 12.2
06:20 1024 30.24 853 25.19 -9 15.9 85 -11 12.2
06:25 1024 30.24 853 25.19 -9 15.8 85 -11.1 12.1
06:30 1024 30.24 853 25.19 -9.1 15.6 86 -11.1 12
06:35 1024 30.24 853 25.19 -9.3 15.2 86 -11.2 11.8
06:40 1024 30.24 853 25.19 -9.4 15.2 86 -11.2 11.8
06:45 1024 30.24 853 25.19 -9.4 15.2 86 -11.3 11.7
06:50 1024 30.24 853 25.19 -9.4 15.1 86 -11.2 11.8
06:55 1024 30.24 853 25.19 -9.5 15 87 -11.2 11.8
07:00 1024 30.24 853 25.19 -9.5 14.8 87 -11.3 11.7
07:05 1024 30.24 853 25.19 -9.6 14.7 87 -11.3 11.6
07:10 1024 30.24 853 25.19 -9.8 14.4 88 -11.4 11.4
07:15 1024 30.24 853 25.19 -9.9 14.1 88 -11.5 11.3
07:20 1024 30.24 853 25.19 -10.1 13.8 89 -11.6 11.2
07:25 1024 30.24 853 25.19 -10.2 13.7 90 -11.5 11.3
07:30 1024 30.24 853 25.19 -10.2 13.7 90 -11.5 11.3
07:35 1024 30.24 853 25.19 -10.1 13.7 90 -11.4 11.4
07:40 1024 30.24 853 25.19 -10.1 13.8 91 -11.4 11.5
07:45 1024 30.24 853 25.19 -10.1 13.9 90 -11.3 11.6
07:50 1024 30.24 853 25.19 -10 14 90 -11.4 11.5
07:55 1024 30.24 853 25.19 -10.1 13.9 90 -11.5 11.4
08:00 1024 30.24 853 25.19 -10.2 13.6 89 -11.7 11
08:05 1023 30.21 853 25.19 -10.4 13.3 89 -11.9 10.6
08:10 1023 30.21 853 25.19 -10.5 13.1 88 -12.1 10.3
08:15 1023 30.21 853 25.19 -10.6 13 88 -12.2 10.1
08:20 1023 30.21 852 25.16 -10.7 12.8 88 -12.3 9.9
08:25 1023 30.21 852 25.16 -10.7 12.7 88 -12.3 9.8
08:30 1023 30.21 852 25.16 -10.8 12.7 88 -12.3 9.8
08:35 1023 30.21 852 25.16 -10.6 13 86 -12.5 9.6
08:40 1023 30.21 852 25.16 -10.5 13.1 85 -12.5 9.5
08:45 1023 30.21 852 25.16 -10.6 13 85 -12.6 9.4
08:50 1023 30.21 852 25.16 -10.7 12.7 86 -12.7 9.2
08:55 1023 30.21 852 25.16 -10.8 12.7 86 -12.7 9.2
09:00 1023 30.21 852 25.16 -10.6 12.9 85 -12.7 9.2
09:05 1023 30.21 852 25.16 -10.6 13 85 -12.7 9.2
09:10 1023 30.21 852 25.16 -10.6 13 85 -12.6 9.3
09:15 1023 30.21 852 25.16 -10.4 13.3 84 -12.5 9.4
09:20 1023 30.21 852 25.16 -10.5 13 85 -12.6 9.4
09:25 1023 30.21 852 25.16 -10.6 13 86 -12.5 9.4
09:30 1022 30.18 852 25.16 -10.4 13.3 86 -12.3 9.9
09:35 1023 30.21 852 25.16 -9.7 14.5 83 -12.1 10.2
09:40 1023 30.21 852 25.16 -9.6 14.7 83 -12 10.3
09:45 1022 30.18 852 25.16 -9.4 15.1 82 -12 10.4
09:50 1022 30.18 852 25.16 -9.2 15.5 80 -12 10.3
09:55 1022 30.18 852 25.16 -9 15.9 80 -11.8 10.8
10:00 1022 30.18 852 25.16 -8.4 17 75 -12.1 10.3
10:05 1022 30.18 852 25.16 -8.2 17.2 74 -12 10.4
10:10 1022 30.18 852 25.16 -8.3 17 76 -11.9 10.6
10:15 1022 30.18 852 25.16 -8.5 16.6 77 -11.9 10.5
10:20 1023 30.21 852 25.16 -8.7 16.4 78 -11.9 10.6
10:25 1023 30.21 852 25.16 -8.8 16.3 78 -12 10.4
10:30 1023 30.21 852 25.16 -8.6 16.6 77 -11.9 10.6
10:35 1023 30.21 852 25.16 -8.6 16.6 77 -11.9 10.5
10:40 1022 30.18 852 25.16 -8.5 16.7 76 -12 10.4
10:45 1022 30.18 852 25.16 -8.5 16.7 76 -12 10.5
10:50 1022 30.18 852 25.16 -8.7 16.4 77 -12 10.4
10:55 1022 30.18 852 25.16 -8.8 16.3 78 -12 10.4
11:00 1022 30.18 852 25.16 -8.7 16.3 78 -11.9 10.5
11:05 1022 30.18 851 25.13 -8.5 16.8 77 -11.8 10.8
11:10 1022 30.18 851 25.13 -8.2 17.2 75 -11.9 10.5
11:15 1022 30.18 851 25.13 -8.1 17.5 75 -11.8 10.7
11:20 1022 30.18 851 25.13 -7.7 18.1 74 -11.5 11.2
11:25 1022 30.18 851 25.13 -7.2 19 72 -11.5 11.3
11:30 1022 30.18 851 25.13 -7.4 18.6 73 -11.4 11.5
11:35 1022 30.18 851 25.13 -7.5 18.5 73 -11.6 11.1
11:40 1022 30.18 851 25.13 -7.5 18.5 72 -11.7 11
11:45 1022 30.18 851 25.13 -7.3 18.8 73 -11.3 11.6
11:50 1022 30.18 851 25.13 -7 19.4 72 -11.3 11.6
11:55 1022 30.18 851 25.13 -6.7 20 71 -11.1 12.1
12:00 1022 30.18 851 25.13 -6.3 20.7 69 -11.1 12.1
12:05 1022 30.18 851 25.13 -6.4 20.4 72 -10.6 12.8
12:10 1021 30.15 851 25.13 -5.6 21.9 66 -11 12.2
12:15 1021 30.15 851 25.13 -5.4 22.3 68 -10.5 13.2
12:20 1021 30.15 851 25.13 -5.3 22.4 67 -10.5 13.2
12:25 1021 30.15 851 25.13 -5 23 66 -10.4 13.3
12:30 1021 30.15 850 25.1 -4.8 23.4 66 -10.2 13.6
12:35 1021 30.15 850 25.1 -4.8 23.4 65 -10.5 13.1
12:40 1021 30.15 850 25.1 -4.4 24 64 -10.4 13.4
12:45 1021 30.15 850 25.1 -4.2 24.4 63 -10.2 13.6
12:50 1021 30.15 850 25.1 -4.5 23.9 64 -10.3 13.4
12:55 1021 30.15 850 25.1 -5.2 22.7 70 -9.9 14.2
13:00 1021 30.15 850 25.1 -5 23 66 -10.4 13.2
13:05 1021 30.15 850 25.1 -5 23.1 67 -10.2 13.7
13:10 1021 30.15 850 25.1 -4.7 23.5 67 -9.9 14.1
13:15 1021 30.15 850 25.1 -5.1 22.8 69 -9.9 14.1
13:20 1020 30.12 850 25.1 -4.7 23.5 65 -10.4 13.3
13:25 1020 30.12 849 25.07 -4.9 23.2 69 -9.8 14.4
13:30 1020 30.12 849 25.07 -5 23 67 -10.1 13.7
13:35 1020 30.12 849 25.07 -4.7 23.5 66 -10.1 13.7
13:40 1020 30.12 849 25.07 -4.9 23.2 68 -10 14
13:45 1020 30.12 849 25.07 -5.3 22.5 70 -10 14.1
13:50 1020 30.12 849 25.07 -4.9 23.1 67 -10.1 13.9
13:55 1020 30.12 849 25.07 -4.4 24.2 64 -10.2 13.7
14:00 1019 30.09 849 25.07 -3.7 25.3 63 -9.7 14.5
14:05 1019 30.09 849 25.07 -3.7 25.4 62 -9.9 14.3
14:10 1019 30.09 848 25.04 -3.9 25 64 -9.8 14.4
14:15 1019 30.09 848 25.04 -3.4 25.8 61 -10 14
14:20 1019 30.09 848 25.04 -3 26.7 60 -9.6 14.7
14:25 1019 30.09 848 25.04 -2.7 27.1 59 -9.7 14.6
14:30 1019 30.09 848 25.04 -2.7 27.1 60 -9.4 15
14:35 1019 30.09 848 25.04 -2.8 26.9 60 -9.6 14.7
14:40 1019 30.09 848 25.04 -3 26.7 61 -9.4 15.1
14:45 1019 30.09 848 25.04 -3 26.6 61 -9.6 14.7
14:50 1018 30.06 848 25.04 -3 26.7 60 -9.7 14.6
14:55 1018 30.06 848 25.04 -3.3 26.1 62 -9.5 14.9
15:00 1018 30.06 848 25.04 -3.3 26 62 -9.7 14.6
15:05 1018 30.06 847 25.01 -3.5 25.6 62 -9.7 14.5
15:10 1018 30.06 847 25.01 -3.5 25.8 61 -9.9 14.2
15:15 1018 30.06 847 25.01 -2.8 26.9 59 -9.8 14.4
15:20 1018 30.06 847 25.01 -2.2 28 57 -9.7 14.5
15:25 1018 30.06 847 25.01 -2.2 28.1 57 -9.7 14.5
15:30 1018 30.06 847 25.01 -2.1 28.2 56 -9.6 14.6
15:35 1018 30.06 847 25.01 -2.2 28.1 57 -9.6 14.7
15:40 1018 30.06 847 25.01 -2.3 27.8 57 -9.7 14.5
15:45 1018 30.06 847 25.01 -2.4 27.6 58 -9.5 14.9
15:50 1018 30.06 847 25.01 -2.6 27.3 59 -9.6 14.8
15:55 1017 30.03 847 25.01 -2.7 27.2 60 -9.4 15.1
16:00 1017 30.03 847 25.01 -2.6 27.3 60 -9.3 15.3
16:05 1017 30.03 847 25.01 -2.8 27 62 -9.1 15.5
16:10 1017 30.03 847 25.01 -2.9 26.8 61 -9.4 15
16:15 1017 30.03 847 25.01 -2.9 26.8 61 -9.3 15.2
16:20 1017 30.03 847 25.01 -2.7 27.1 61 -9.2 15.4
16:25 1017 30.03 847 25.01 -2.9 26.8 63 -8.9 16
16:30 1017 30.03 847 25.01 -2.9 26.7 63 -9 15.7
16:35 1017 30.03 847 25.01 -3 26.6 62 -9.2 15.4
16:40 1017 30.03 846 24.98 -2.8 26.9 62 -9.1 15.6
16:45 1017 30.03 846 24.98 -2.7 27.2 61 -9.2 15.4
16:50 1017 30.03 846 24.98 -2.7 27.2 61 -9.3 15.3
16:55 1017 30.03 846 24.98 -2.5 27.4 61 -9.1 15.5
17:00 1017 30.03 846 24.98 -2.5 27.5 61 -9 15.9
17:05 1017 30.03 846 24.98 -2.6 27.3 62 -9 15.9
17:10 1017 30.03 846 24.98 -2.7 27.1 64 -8.7 16.4
17:15 1017 30.03 846 24.98 -2.8 26.9 66 -8.4 16.9
17:20 1017 30.03 846 24.98 -2.8 26.9 66 -8.3 17
17:25 1017 30.03 846 24.98 -3 26.7 67 -8.2 17.2
17:30 1017 30.03 846 24.98 -3 26.6 67 -8.3 17
17:35 1016 30 846 24.98 -2.9 26.8 66 -8.4 16.8
17:40 1016 30 846 24.98 -2.8 27 67 -8.1 17.4
17:45 1017 30.03 846 24.98 -2.7 27.1 68 -7.8 17.9
17:50 1016 30 846 24.98 -2.7 27.1 70 -7.4 18.7
17:55 1016 30 846 24.98 -2.8 26.9 74 -6.7 19.9
18:00 1016 30 845 24.95 -3 26.6 75 -6.7 19.9
18:05 1016 30 845 24.95 -2.9 26.7 76 -6.6 20.2
18:10 1016 30 845 24.95 -2.9 26.8 77 -6.3 20.6
18:15 1016 30 845 24.95 -2.8 26.9 78 -6.1 21.1
18:20 1016 30 845 24.95 -2.8 26.9 80 -5.8 21.5
18:25 1016 30 845 24.95 -2.8 26.9 81 -5.7 21.7
18:30 1016 30 845 24.95 -2.7 27.1 81 -5.5 22.1
18:35 1016 30 845 24.95 -2.7 27.2 82 -5.4 22.4
18:40 1016 30 845 24.95 -2.6 27.3 82 -5.2 22.6
18:45 1016 30 845 24.95 -2.5 27.4 82 -5.1 22.8
18:50 1016 30 845 24.95 -2.5 27.6 82 -5.1 22.8
18:55 1016 30 845 24.95 -2.4 27.7 82 -5.1 22.9
19:00 1016 30 845 24.95 -2.4 27.7 82 -5.1 22.9
19:05 1016 30 845 24.95 -2.3 27.9 82 -5 23
19:10 1016 30 845 24.95 -2.2 28 81 -5 23
19:15 1016 30 845 24.95 -2.1 28.2 80 -5 22.9
19:20 1016 30 845 24.95 -2.1 28.3 80 -5.1 22.9
19:25 1016 30 845 24.95 -2.1 28.3 79 -5.2 22.7
19:30 1016 30 845 24.95 -2 28.4 79 -5.2 22.7
19:35 1016 30 845 24.95 -2 28.4 79 -5.1 22.7
19:40 1016 30 845 24.95 -2.1 28.2 80 -5.2 22.6
19:45 1016 30 845 24.95 -2.2 28 80 -5.2 22.7
19:50 1016 30 845 24.95 -2.2 28 80 -5.2 22.6
19:55 1016 30 845 24.95 -2.2 28.1 79 -5.3 22.5
20:00 1016 30 845 24.95 -2.1 28.2 79 -5.2 22.6
20:05 1015 29.97 845 24.95 -2.1 28.2 80 -5.2 22.7
20:10 1015 29.97 845 24.95 -2.2 28 81 -5.1 22.9
20:15 1015 29.97 845 24.95 -2.3 27.8 81 -5.1 22.9
20:20 1015 29.97 845 24.95 -2.3 27.8 81 -5.1 22.8
20:25 1015 29.97 844 24.92 -2.4 27.7 82 -5.1 22.8
20:30 1015 29.97 844 24.92 -2.5 27.6 80 -5.5 22.2
20:35 1015 29.97 845 24.95 -2.6 27.3 80 -5.6 22
20:40 1015 29.97 845 24.95 -2.6 27.2 79 -5.7 21.7
20:45 1015 29.97 844 24.92 -2.6 27.3 79 -5.7 21.7
20:50 1015 29.97 844 24.92 -2.6 27.4 78 -5.8 21.6
20:55 1015 29.97 844 24.92 -2.6 27.4 78 -5.9 21.3
21:00 1015 29.97 844 24.92 -2.6 27.3 78 -5.9 21.4
21:05 1015 29.97 844 24.92 -2.6 27.2 80 -5.6 22
21:10 1015 29.97 844 24.92 -2.6 27.3 80 -5.6 22
21:15 1015 29.97 844 24.92 -2.6 27.3 80 -5.5 22.1
21:20 1015 29.97 844 24.92 -2.6 27.3 81 -5.5 22.2
21:25 1015 29.97 844 24.92 -2.6 27.2 82 -5.4 22.3
21:30 1015 29.97 844 24.92 -2.6 27.3 82 -5.2 22.6
21:35 1015 29.97 844 24.92 -2.5 27.5 82 -5.1 22.7
21:40 1015 29.97 844 24.92 -2.4 27.7 82 -5.1 22.8
21:45 1015 29.97 844 24.92 -2.3 27.9 81 -5 23
21:50 1015 29.97 844 24.92 -2.2 28.1 82 -4.9 23.2
21:55 1015 29.97 844 24.92 -2.2 28.1 82 -4.8 23.3
22:00 1015 29.97 844 24.92 -2.2 28.1 82 -4.9 23.2
22:05 1015 29.97 844 24.92 -2.2 28.1 82 -4.9 23.2
22:10 1015 29.97 844 24.92 -2.1 28.2 82 -4.8 23.3
22:15 1015 29.97 844 24.92 -2.1 28.2 82 -4.8 23.4
22:20 1015 29.97 844 24.92 -2.1 28.2 82 -4.8 23.3
22:25 1015 29.97 844 24.92 -2.2 28.1 82 -4.9 23.2
22:30 1015 29.97 844 24.92 -2.2 28.1 82 -4.9 23.1
22:35 1015 29.97 844 24.92 -2.2 28 82 -5 23
22:40 1015 29.97 844 24.92 -2.2 28 82 -4.9 23.2
22:45 1015 29.97 844 24.92 -2.2 28 81 -5 23.1
22:50 1015 29.97 844 24.92 -2.2 28.1 82 -4.9 23.2
22:55 1015 29.97 844 24.92 -2.2 28.1 82 -4.9 23.2
23:00 1015 29.97 844 24.92 -2.3 27.9 82 -4.9 23.2
23:05 1015 29.97 844 24.92 -2.3 27.8 82 -5 23.1
23:10 1015 29.97 844 24.92 -2.3 27.9 82 -5 23.1
23:15 1015 29.97 844 24.92 -2.3 27.9 82 -5 23
23:20 1015 29.97 844 24.92 -2.3 27.9 82 -5 23
23:25 1014 29.94 844 24.92 -2.3 27.9 82 -5 23.1
23:30 1015 29.97 844 24.92 -2.3 27.9 82 -4.9 23.2
23:35 1014 29.94 844 24.92 -2.1 28.1 82 -4.8 23.3
23:40 1015 29.97 844 24.92 -2.1 28.3 82 -4.7 23.5
23:45 1015 29.97 844 24.92 -2 28.3 82 -4.7 23.5
23:50 1015 29.97 844 24.92 -2 28.4 82 -4.6 23.7
23:55 1015 29.97 844 24.92 -1.9 28.5 82 -4.6 23.6
24:00 1015 29.97 844 24.92 -1.9 28.6 81 -4.7 23.5